createdAt,value
2018-08-04T00:00:01.638Z,101289.58
2018-08-04T00:02:28.695Z,101288.61
2018-08-04T00:04:55.779Z,101289.72
2018-08-04T00:07:22.795Z,101293.05
2018-08-04T00:09:50.249Z,101293.16
2018-08-04T00:12:17.251Z,101290.24
2018-08-04T00:14:44.264Z,101287.14
2018-08-04T00:17:11.375Z,101284.27
2018-08-04T00:19:38.452Z,101287.33
2018-08-04T00:22:05.446Z,101285.19
2018-08-04T00:24:32.437Z,101286.43
2018-08-04T00:26:59.574Z,101289.02
2018-08-04T00:29:26.582Z,101286.02
2018-08-04T00:31:53.603Z,101285.52
2018-08-04T00:34:20.599Z,101286.83
2018-08-04T00:36:47.683Z,101292.28
2018-08-04T00:39:14.684Z,101293.32
2018-08-04T00:41:41.732Z,101283.52
2018-08-04T00:44:08.749Z,101284.80
2018-08-04T00:46:35.767Z,101279.88
2018-08-04T00:49:02.816Z,101277.86
2018-08-04T00:51:29.808Z,101280.97
2018-08-04T00:53:56.911Z,101284.89
2018-08-04T00:56:23.926Z,101283.14
2018-08-04T00:58:51.347Z,101284.23
2018-08-04T01:01:18.395Z,101282.81
2018-08-04T01:03:45.487Z,101275.77
2018-08-04T01:06:12.479Z,101282.28
2018-08-04T01:08:39.491Z,101277.47
2018-08-04T01:11:06.614Z,101275.51
2018-08-04T01:13:33.647Z,101279.38
2018-08-04T01:16:00.821Z,101274.23
2018-08-04T01:18:27.888Z,101277.32
2018-08-04T01:20:54.942Z,101270.31
2018-08-04T01:23:21.975Z,101270.52
2018-08-04T01:25:49.004Z,101268.63
2018-08-04T01:28:16.023Z,101261.66
2018-08-04T01:30:43.020Z,101259.16
2018-08-04T01:33:10.020Z,101259.66
2018-08-04T01:35:37.031Z,101267.67
2018-08-04T01:38:04.135Z,101258.11
2018-08-04T01:40:31.159Z,101263.30
2018-08-04T01:42:58.555Z,101257.10
2018-08-04T01:45:25.623Z,101256.06
2018-08-04T01:47:52.805Z,101248.67
2018-08-04T01:50:19.907Z,101248.97
2018-08-04T01:52:46.899Z,101250.27
2018-08-04T01:55:14.841Z,101248.13
2018-08-04T01:57:41.838Z,101249.17
2018-08-04T02:00:09.026Z,101244.39
2018-08-04T02:02:36.005Z,101236.73
2018-08-04T02:05:03.091Z,101241.72
2018-08-04T02:07:30.281Z,101245.41
2018-08-04T02:09:57.405Z,101247.43
2018-08-04T02:12:24.511Z,101239.73
2018-08-04T02:14:52.459Z,101245.83
2018-08-04T02:17:19.487Z,101242.45
2018-08-04T02:19:47.011Z,101240.54
2018-08-04T02:22:14.004Z,101235.05
2018-08-04T02:24:41.020Z,101237.98
2018-08-04T02:27:08.111Z,101241.88
2018-08-04T02:29:35.095Z,101233.07
2018-08-04T02:32:02.166Z,101230.97
2018-08-04T02:34:29.323Z,101237.36
2018-08-04T02:36:56.317Z,101231.91
2018-08-04T02:39:23.375Z,101234.99
2018-08-04T02:41:50.391Z,101235.93
2018-08-04T02:44:17.476Z,101232.81
2018-08-04T02:46:44.489Z,101228.33
2018-08-04T02:49:11.631Z,101234.55
2018-08-04T02:51:38.647Z,101229.70
2018-08-04T02:54:05.757Z,101221.28
2018-08-04T02:56:32.767Z,101219.16
2018-08-04T02:58:59.785Z,101221.19
2018-08-04T03:01:27.203Z,101219.02
2018-08-04T03:03:54.211Z,101218.09
2018-08-04T03:06:21.292Z,101222.74
2018-08-04T03:08:48.290Z,101222.00
2018-08-04T03:11:15.302Z,101225.98
2018-08-04T03:13:42.303Z,101225.34
2018-08-04T03:16:09.322Z,101222.88
2018-08-04T03:18:36.392Z,101229.03
2018-08-04T03:21:03.496Z,101236.05
2018-08-04T03:23:30.483Z,101240.20
2018-08-04T03:25:57.488Z,101244.50
2018-08-04T03:28:24.495Z,101247.50
2018-08-04T03:30:51.610Z,101239.98
2018-08-04T03:33:18.627Z,101241.30
2018-08-04T03:35:45.630Z,101233.69
2018-08-04T03:38:12.607Z,101229.66
2018-08-04T03:40:39.684Z,101228.89
2018-08-04T03:43:06.695Z,101226.13
2018-08-04T03:45:33.675Z,101226.28
2018-08-04T03:48:00.736Z,101230.75
2018-08-04T03:50:27.883Z,101228.10
2018-08-04T03:52:54.894Z,101226.19
2018-08-04T03:55:21.900Z,101226.92
2018-08-04T03:57:48.975Z,101219.45
2018-08-04T04:00:15.971Z,101217.55
2018-08-04T04:02:42.988Z,101231.58
2018-08-04T04:05:09.970Z,101228.17
2018-08-04T04:07:36.960Z,101228.30
2018-08-04T04:10:04.131Z,101224.44
2018-08-04T04:12:31.207Z,101222.95
2018-08-04T04:14:58.204Z,101221.58
2018-08-04T04:17:25.213Z,101217.27
2018-08-04T04:19:52.229Z,101218.73
2018-08-04T04:22:19.407Z,101223.96
2018-08-04T04:24:46.381Z,101232.00
2018-08-04T04:27:13.539Z,101229.11
2018-08-04T04:29:40.648Z,101234.41
2018-08-04T04:32:07.763Z,101238.38
2018-08-04T04:34:35.035Z,101239.75
2018-08-04T04:37:02.096Z,101234.85
2018-08-04T04:39:29.088Z,101228.89
2018-08-04T04:41:56.088Z,101226.16
2018-08-04T04:44:23.158Z,101223.39
2018-08-04T04:46:50.272Z,101223.14
2018-08-04T04:49:17.359Z,101224.03
2018-08-04T04:51:44.435Z,101227.25
2018-08-04T04:54:11.540Z,101224.98
2018-08-04T04:56:38.567Z,101224.69
2018-08-04T04:59:05.598Z,101223.80
2018-08-04T05:01:32.671Z,101230.72
2018-08-04T05:03:59.819Z,101228.38
2018-08-04T05:06:26.958Z,101233.05
2018-08-04T05:08:54.055Z,101231.44
2018-08-04T05:11:21.068Z,101238.45
2018-08-04T05:13:48.088Z,101235.83
2018-08-04T05:16:15.095Z,101238.73
2018-08-04T05:18:42.283Z,101240.19
2018-08-04T05:21:09.251Z,101236.45
2018-08-04T05:23:36.232Z,101241.74
2018-08-04T05:26:03.431Z,101244.75
2018-08-04T05:28:30.413Z,101239.91
2018-08-04T05:30:57.461Z,101237.93
2018-08-04T05:33:24.559Z,101237.93
2018-08-04T05:35:51.551Z,101238.94
2018-08-04T05:38:18.576Z,101243.27
2018-08-04T05:40:45.573Z,101249.75
2018-08-04T05:43:12.630Z,101246.54
2018-08-04T05:45:39.580Z,101233.89
2018-08-04T05:48:06.615Z,101242.23
2018-08-04T05:50:33.619Z,101243.30
2018-08-04T05:53:00.732Z,101254.41
2018-08-04T05:55:27.865Z,101252.50
2018-08-04T05:57:55.016Z,101259.41
2018-08-04T06:00:21.983Z,101253.80
2018-08-04T06:02:49.064Z,101253.36
2018-08-04T06:05:16.148Z,101264.98
2018-08-04T06:07:43.178Z,101261.91
2018-08-04T06:10:10.279Z,101266.77
2018-08-04T06:12:37.268Z,101263.58
2018-08-04T06:15:04.574Z,101270.53
2018-08-04T06:17:31.671Z,101275.39
2018-08-04T06:19:58.665Z,101275.30
2018-08-04T06:22:25.695Z,101275.83
2018-08-04T06:24:53.084Z,101262.58
2018-08-04T06:27:20.423Z,101266.28
2018-08-04T06:29:47.408Z,101272.25
2018-08-04T06:32:14.513Z,101271.75
2018-08-04T06:34:41.555Z,101273.67
2018-08-04T06:37:08.560Z,101276.83
2018-08-04T06:39:35.633Z,101281.09
2018-08-04T06:42:02.661Z,101281.48
2018-08-04T06:44:29.725Z,101286.33
2018-08-04T06:46:56.720Z,101287.75
2018-08-04T06:49:24.538Z,101286.91
2018-08-04T06:51:51.672Z,101285.80
2018-08-04T06:54:18.827Z,101280.36
2018-08-04T06:56:45.932Z,101284.97
2018-08-04T06:59:13.009Z,101280.16
2018-08-04T07:01:40.122Z,101277.71
2018-08-04T07:04:07.141Z,101278.59
2018-08-04T07:06:34.168Z,101283.34
2018-08-04T07:09:01.254Z,101284.70
2018-08-04T07:11:28.240Z,101284.27
2018-08-04T07:13:55.236Z,101281.21
2018-08-04T07:16:22.340Z,101288.55
2018-08-04T07:18:49.345Z,101274.72
2018-08-04T07:21:16.352Z,101285.78
2018-08-04T07:23:43.388Z,101289.41
2018-08-04T07:26:10.551Z,101289.53
2018-08-04T07:28:37.619Z,101289.48
2018-08-04T07:31:05.376Z,101295.33
2018-08-04T07:33:32.376Z,101292.33
2018-08-04T07:35:59.409Z,101293.27
2018-08-04T07:38:26.527Z,101290.17
2018-08-04T07:40:53.555Z,101294.70
2018-08-04T07:43:20.592Z,101294.47
2018-08-04T07:45:47.623Z,101293.38
2018-08-04T07:48:14.640Z,101293.41
2018-08-04T07:50:41.649Z,101292.48
2018-08-04T07:53:08.739Z,101290.42
2018-08-04T07:55:35.793Z,101289.78
2018-08-04T07:58:02.880Z,101291.22
2018-08-04T08:00:29.880Z,101290.11
2018-08-04T08:02:56.987Z,101291.31
2018-08-04T08:05:24.015Z,101297.59
2018-08-04T08:07:51.031Z,101298.35
2018-08-04T08:10:18.101Z,101297.08
2018-08-04T08:12:45.191Z,101298.30
2018-08-04T08:15:12.205Z,101303.54
2018-08-04T08:17:39.208Z,101241.04
2018-08-04T08:20:06.401Z,101299.13
2018-08-04T08:22:37.595Z,101296.62
2018-08-04T08:25:04.932Z,101301.13
2018-08-04T08:27:32.109Z,101290.42
2018-08-04T08:29:59.252Z,101290.67
2018-08-04T08:32:26.276Z,101288.16
2018-08-04T08:34:53.274Z,101290.06
2018-08-04T08:37:20.692Z,101283.50
2018-08-04T08:39:47.783Z,101286.59
2018-08-04T08:42:14.789Z,101291.44
2018-08-04T08:44:41.804Z,101284.73
2018-08-04T08:47:08.835Z,101286.53
2018-08-04T08:49:35.818Z,101285.05
2018-08-04T08:52:02.871Z,101289.33
2018-08-04T08:54:29.875Z,101287.50
2018-08-04T08:56:56.921Z,101280.61
2018-08-04T08:59:24.663Z,101273.80
2018-08-04T09:01:51.795Z,101273.76
2018-08-04T09:04:18.940Z,101277.41
2018-08-04T09:06:45.935Z,101277.87
2018-08-04T09:09:12.927Z,101277.94
2018-08-04T09:11:39.955Z,101271.08
2018-08-04T09:14:06.986Z,101274.12
2018-08-04T09:16:34.259Z,101280.91
2018-08-04T09:19:01.345Z,101282.79
2018-08-04T09:21:28.425Z,101280.77
2018-08-04T09:23:55.870Z,101282.18
2018-08-04T09:26:22.899Z,101286.12
2018-08-04T09:28:50.059Z,101278.06
2018-08-04T09:31:17.078Z,101278.89
2018-08-04T09:33:44.143Z,101279.80
2018-08-04T09:36:11.155Z,101279.56
2018-08-04T09:38:38.262Z,101283.05
2018-08-04T09:41:05.322Z,101275.79
2018-08-04T09:43:32.314Z,101276.16
2018-08-04T09:45:59.408Z,101271.36
2018-08-04T09:48:26.416Z,101266.19
2018-08-04T09:50:54.040Z,101272.98
2018-08-04T09:53:21.128Z,101266.19
2018-08-04T09:55:48.198Z,101264.22
2018-08-04T09:58:15.203Z,101263.44
2018-08-04T10:00:48.044Z,101254.45
2018-08-04T10:03:15.207Z,101265.59
2018-08-04T10:05:42.289Z,101262.14
2018-08-04T10:08:09.444Z,101262.96
2018-08-04T10:10:36.539Z,101258.81
2018-08-04T10:13:03.543Z,101265.67
2018-08-04T10:15:30.656Z,101263.84
2018-08-04T10:17:57.680Z,101260.17
2018-08-04T10:20:24.748Z,101258.52
2018-08-04T10:22:51.860Z,101258.56
2018-08-04T10:25:18.915Z,101266.68
2018-08-04T10:27:46.003Z,101258.53
2018-08-04T10:30:13.003Z,101257.66
2018-08-04T10:32:40.155Z,101256.82
2018-08-04T10:35:07.943Z,101258.11
2018-08-04T10:37:35.052Z,101259.04
2018-08-04T10:40:02.079Z,101260.31
2018-08-04T10:42:29.067Z,101259.02
2018-08-04T10:44:56.079Z,101254.72
2018-08-04T10:47:23.088Z,101258.59
2018-08-04T10:49:50.215Z,101255.59
2018-08-04T10:52:17.199Z,101258.16
2018-08-04T10:54:44.311Z,101255.13
2018-08-04T10:57:11.298Z,101249.08
2018-08-04T10:59:38.325Z,101247.78
2018-08-04T11:02:06.192Z,101248.64
2018-08-04T11:04:33.185Z,101245.65
2018-08-04T11:07:00.216Z,101239.20
2018-08-04T11:09:27.208Z,101238.74
2018-08-04T11:11:54.203Z,101243.49
2018-08-04T11:14:21.211Z,101248.26
2018-08-04T11:16:48.266Z,101242.66
2018-08-04T11:19:15.224Z,101234.04
2018-08-04T11:21:42.239Z,101236.20
2018-08-04T11:24:09.364Z,101227.59
2018-08-04T11:26:36.377Z,101228.03
2018-08-04T11:29:03.468Z,101228.86
2018-08-04T11:31:30.771Z,101239.20
2018-08-04T11:33:57.892Z,101228.02
2018-08-04T11:36:24.964Z,101230.59
2018-08-04T11:38:52.082Z,101239.18
2018-08-04T11:41:19.183Z,101225.86
2018-08-04T11:43:46.352Z,101222.84
2018-08-04T11:46:13.468Z,101229.30
2018-08-04T11:48:40.539Z,101240.08
2018-08-04T11:51:07.613Z,101228.02
2018-08-04T11:53:35.012Z,101228.84
2018-08-04T11:56:02.024Z,101229.27
2018-08-04T11:58:29.104Z,101218.52
2018-08-04T12:00:56.357Z,101212.43
2018-08-04T12:03:23.360Z,101223.98
2018-08-04T12:05:50.439Z,101219.60
2018-08-04T12:08:17.575Z,101223.34
2018-08-04T12:10:44.651Z,101224.63
2018-08-04T12:13:11.722Z,101221.14
2018-08-04T12:15:38.892Z,101215.61
2018-08-04T12:18:05.969Z,101212.81
2018-08-04T12:20:33.017Z,101212.45
2018-08-04T12:23:00.108Z,101208.59
2018-08-04T12:25:27.275Z,101206.81
2018-08-04T12:27:54.287Z,101212.72
2018-08-04T12:30:21.535Z,101217.41
2018-08-04T12:32:48.521Z,101212.73
2018-08-04T12:35:15.594Z,101212.08
2018-08-04T12:37:42.600Z,101211.60
2018-08-04T12:40:09.637Z,101211.86
2018-08-04T12:42:36.654Z,101200.80
2018-08-04T12:45:03.704Z,101207.34
2018-08-04T12:47:30.859Z,101199.85
2018-08-04T12:49:58.191Z,101198.69
2018-08-04T12:52:25.236Z,101195.66
2018-08-04T12:54:52.344Z,101202.29
2018-08-04T12:57:19.448Z,101213.03
2018-08-04T12:59:46.458Z,101207.06
2018-08-04T13:02:13.472Z,101202.00
2018-08-04T13:04:40.551Z,101198.06
2018-08-04T13:07:07.909Z,101204.06
2018-08-04T13:09:35.033Z,101194.69
2018-08-04T13:12:02.142Z,101200.42
2018-08-04T13:14:29.283Z,101188.39
2018-08-04T13:16:56.288Z,101200.95
2018-08-04T13:19:23.335Z,101194.17
2018-08-04T13:21:50.669Z,101200.77
2018-08-04T13:24:17.671Z,101196.22
2018-08-04T13:26:44.670Z,101199.75
2018-08-04T13:29:11.804Z,101193.14
2018-08-04T13:31:38.821Z,101194.59
2018-08-04T13:34:05.868Z,101195.52
2018-08-04T13:36:32.891Z,101191.84
2018-08-04T13:39:00.224Z,101189.70
2018-08-04T13:41:27.368Z,101193.93
2018-08-04T13:43:54.365Z,101186.98
2018-08-04T13:46:21.420Z,101182.21
2018-08-04T13:48:48.431Z,101182.26
2018-08-04T13:51:15.846Z,101185.11
2018-08-04T13:53:42.935Z,101186.37
2018-08-04T13:56:09.972Z,101193.09
2018-08-04T13:58:37.052Z,101184.83
2018-08-04T14:01:04.167Z,101191.11
2018-08-04T14:03:31.779Z,101196.85
2018-08-04T14:05:58.934Z,101192.74
2018-08-04T14:08:26.782Z,101187.52
2018-08-04T14:10:54.571Z,101193.54
2018-08-04T14:13:22.506Z,101193.28
2018-08-04T14:15:50.250Z,101189.17
2018-08-04T14:18:17.961Z,101191.17
2018-08-04T14:20:45.702Z,101189.09
2018-08-04T14:23:13.641Z,101184.52
2018-08-04T14:25:41.575Z,101180.48
2018-08-04T14:28:09.470Z,101178.94
2018-08-04T14:30:36.495Z,101183.16
2018-08-04T14:33:03.504Z,101186.37
2018-08-04T14:35:30.549Z,101183.73
2018-08-04T14:37:57.900Z,101175.89
2018-08-04T14:40:25.128Z,101173.05
2018-08-04T14:42:52.188Z,101171.97
2018-08-04T14:45:19.208Z,101165.13
2018-08-04T14:47:46.200Z,101172.91
2018-08-04T14:50:13.273Z,101166.16
2018-08-04T14:52:41.058Z,101168.20
2018-08-04T14:55:08.467Z,101164.80
2018-08-04T14:57:35.684Z,101167.52
2018-08-04T15:00:02.761Z,101162.42
2018-08-04T15:02:29.759Z,101169.70
2018-08-04T15:04:57.017Z,101169.78
2018-08-04T15:07:24.207Z,101168.46
2018-08-04T15:09:51.392Z,101162.30
2018-08-04T15:12:18.391Z,101162.33
2018-08-04T15:14:46.309Z,101161.05
2018-08-04T15:17:13.387Z,101164.90
2018-08-04T15:19:40.487Z,101160.31
2018-08-04T15:22:07.588Z,101157.35
2018-08-04T15:24:34.595Z,101155.70
2018-08-04T15:27:01.610Z,101155.70
2018-08-04T15:29:29.020Z,101156.97
2018-08-04T15:31:56.009Z,101155.67
2018-08-04T15:34:23.003Z,101159.58
2018-08-04T15:36:50.120Z,101155.70
2018-08-04T15:39:17.133Z,101155.71
2018-08-04T15:41:44.244Z,101158.72
2018-08-04T15:44:11.367Z,101153.98
2018-08-04T15:46:38.420Z,101157.91
2018-08-04T15:49:05.495Z,101152.33
2018-08-04T15:51:32.593Z,101152.73
2018-08-04T15:53:59.687Z,101151.52
2018-08-04T15:56:26.685Z,101149.34
2018-08-04T15:58:53.739Z,101161.80
2018-08-04T16:01:20.817Z,101161.81
2018-08-04T16:03:48.060Z,101157.95
2018-08-04T16:06:15.122Z,101161.83
2018-08-04T16:08:43.187Z,101159.70
2018-08-04T16:11:11.677Z,101162.70
2018-08-04T16:13:38.788Z,101157.98
2018-08-04T16:16:06.104Z,101161.39
2018-08-04T16:18:33.416Z,101167.86
2018-08-04T16:21:00.400Z,101167.83
2018-08-04T16:23:27.418Z,101163.95
2018-08-04T16:25:54.439Z,101168.70
2018-08-04T16:28:21.419Z,101163.96
2018-08-04T16:30:48.410Z,101168.70
2018-08-04T16:33:15.499Z,101172.55
2018-08-04T16:35:42.600Z,101180.64
2018-08-04T16:38:09.656Z,101174.22
2018-08-04T16:40:36.767Z,101187.08
2018-08-04T16:43:03.787Z,101184.93
2018-08-04T16:45:30.823Z,101183.19
2018-08-04T16:47:57.899Z,101185.69
2018-08-04T16:50:25.228Z,101184.78
2018-08-04T16:52:52.210Z,101183.48
2018-08-04T16:55:19.219Z,101181.31
2018-08-04T16:57:46.235Z,101191.66
2018-08-04T17:00:13.239Z,101195.79
2018-08-04T17:02:40.239Z,101190.15
2018-08-04T17:05:07.400Z,101191.44
2018-08-04T17:07:34.476Z,101191.40
2018-08-04T17:10:01.456Z,101192.61
2018-08-04T17:12:28.761Z,101202.88
2018-08-04T17:14:55.741Z,101211.41
2018-08-04T17:17:29.748Z,101214.81
2018-08-04T17:19:56.726Z,101219.47
2018-08-04T17:22:23.712Z,101220.77
2018-08-04T17:24:50.797Z,101219.78
2018-08-04T17:27:17.851Z,101219.33
2018-08-04T17:29:44.920Z,101221.28
2018-08-04T17:32:11.937Z,101219.08
2018-08-04T17:34:38.941Z,101226.72
2018-08-04T17:37:06.075Z,101225.36
2018-08-04T17:39:33.154Z,101223.14
2018-08-04T17:42:00.230Z,101214.55
2018-08-04T17:44:27.289Z,101225.48
2018-08-04T17:46:54.247Z,101235.69
2018-08-04T17:49:21.227Z,101235.68
2018-08-04T17:51:48.296Z,101215.31
2018-08-04T17:54:15.280Z,101238.94
2018-08-04T17:56:42.264Z,101229.09
2018-08-04T17:59:09.287Z,101233.67
2018-08-04T18:01:36.297Z,101226.73
2018-08-04T18:04:03.530Z,101232.68
2018-08-04T18:06:30.532Z,101235.20
2018-08-04T18:08:58.124Z,101223.55
2018-08-04T18:11:25.211Z,101231.25
2018-08-04T18:13:52.205Z,101233.97
2018-08-04T18:16:19.359Z,101230.13
2018-08-04T18:18:46.403Z,101232.78
2018-08-04T18:21:13.408Z,101227.51
2018-08-04T18:23:40.810Z,101230.98
2018-08-04T18:26:07.811Z,101237.67
2018-08-04T18:28:34.811Z,101237.67
2018-08-04T18:31:01.800Z,101238.80
2018-08-04T18:33:28.931Z,101245.64
2018-08-04T18:35:55.958Z,101249.31
2018-08-04T18:38:22.969Z,101253.61
2018-08-04T18:40:49.959Z,101252.80
2018-08-04T18:43:16.950Z,101251.41
2018-08-04T18:45:43.970Z,101232.01
2018-08-04T18:48:10.943Z,101235.78
2018-08-04T18:50:38.077Z,101244.54
2018-08-04T18:53:05.255Z,101241.67
2018-08-04T18:55:32.184Z,101241.67
2018-08-04T18:57:59.362Z,101234.66
2018-08-04T19:00:26.724Z,101240.53
2018-08-04T19:02:53.699Z,101247.37
2018-08-04T19:05:20.739Z,101243.81
2018-08-04T19:07:47.735Z,101243.31
2018-08-04T19:10:14.848Z,101241.97
2018-08-04T19:12:41.956Z,101247.47
2018-08-04T19:15:09.131Z,101246.48
2018-08-04T19:17:36.124Z,101253.22
2018-08-04T19:20:03.478Z,101254.57
2018-08-04T19:22:30.960Z,101267.62
2018-08-04T19:24:58.115Z,101269.61
2018-08-04T19:27:25.599Z,101267.33
2018-08-04T19:29:52.579Z,101268.59
2018-08-04T19:32:19.974Z,101270.55
2018-08-04T19:34:46.981Z,101269.70
2018-08-04T19:37:13.971Z,101271.83
2018-08-04T19:39:40.970Z,101275.59
2018-08-04T19:42:07.979Z,101280.58
2018-08-04T19:44:35.897Z,101278.13
2018-08-04T19:47:03.966Z,101284.29
2018-08-04T19:49:31.048Z,101282.44
2018-08-04T19:51:58.120Z,101286.94
2018-08-04T19:54:25.208Z,101274.73
2018-08-04T19:56:52.287Z,101274.16
2018-08-04T19:59:19.347Z,101275.42
2018-08-04T20:01:46.473Z,101283.02
2018-08-04T20:04:13.991Z,101277.34
2018-08-04T20:06:40.987Z,101276.73
2018-08-04T20:09:09.479Z,101284.50
2018-08-04T20:11:36.500Z,101282.54
2018-08-04T20:14:03.496Z,101283.10
2018-08-04T20:16:30.986Z,101289.78
2018-08-04T20:18:58.008Z,101286.95
2018-08-04T20:21:24.990Z,101291.09
2018-08-04T20:23:51.967Z,101296.38
2018-08-04T20:26:19.315Z,101297.72
2018-08-04T20:28:46.300Z,101306.25
2018-08-04T20:31:13.279Z,101308.89
2018-08-04T20:33:40.371Z,101304.22
2018-08-04T20:36:07.375Z,101301.72
2018-08-04T20:38:34.490Z,101302.55
2018-08-04T20:41:01.651Z,101295.58
2018-08-04T20:43:28.685Z,101294.22
2018-08-04T20:45:56.076Z,101294.20
2018-08-04T20:48:23.248Z,101296.83
2018-08-04T20:50:51.207Z,101297.00
2018-08-04T20:53:18.230Z,101295.86
2018-08-04T20:55:45.254Z,101296.12
2018-08-04T20:58:12.249Z,101297.61
2018-08-04T21:00:41.047Z,101290.80
2018-08-04T21:03:09.226Z,101293.27
2018-08-04T21:05:36.510Z,101287.27
2018-08-04T21:08:03.622Z,101291.83
2018-08-04T21:10:30.612Z,101296.08
2018-08-04T21:12:57.611Z,101293.94
2018-08-04T21:15:24.620Z,101291.36
2018-08-04T21:17:51.739Z,101289.48
2018-08-04T21:20:20.522Z,101281.15
2018-08-04T21:22:47.819Z,101289.58
2018-08-04T21:25:15.317Z,101292.23
2018-08-04T21:27:42.386Z,101289.95
2018-08-04T21:30:09.383Z,101296.70
2018-08-04T21:32:36.485Z,101293.45
2018-08-04T21:35:03.622Z,101300.69
2018-08-04T21:37:30.639Z,101294.02
2018-08-04T21:39:57.664Z,101297.22
2018-08-04T21:42:25.058Z,101297.22
2018-08-04T21:44:52.511Z,101297.59
2018-08-04T21:47:20.876Z,101298.48
2018-08-04T21:49:50.025Z,101301.72
2018-08-04T21:52:17.814Z,101305.50
2018-08-04T21:54:44.860Z,101307.16
2018-08-04T21:57:12.645Z,101306.69
2018-08-04T21:59:40.173Z,101304.69
2018-08-04T22:02:07.413Z,101306.25
2018-08-04T22:04:34.904Z,101307.31
2018-08-04T22:07:44.676Z,101307.38
2018-08-04T22:10:12.327Z,101309.75
2018-08-04T22:12:39.730Z,101301.34
2018-08-04T22:15:07.064Z,101305.75
2018-08-04T22:17:34.539Z,101306.92
2018-08-04T22:20:01.621Z,101316.43
2018-08-04T22:22:28.932Z,101315.02
2018-08-04T22:24:56.258Z,101316.18
2018-08-04T22:27:23.522Z,101315.98
2018-08-04T22:29:50.530Z,101320.41
2018-08-04T22:32:17.718Z,101313.80
2018-08-04T22:34:44.708Z,101321.77
2018-08-04T22:37:11.916Z,101314.44
2018-08-04T22:39:38.936Z,101319.64
2018-08-04T22:42:05.995Z,101314.59
2018-08-04T22:44:33.092Z,101314.61
2018-08-04T22:47:00.396Z,101314.44
2018-08-04T22:49:27.468Z,101317.33
2018-08-04T22:51:54.464Z,101314.44
2018-08-04T22:54:21.459Z,101314.65
2018-08-04T22:56:48.535Z,101315.88
2018-08-04T22:59:15.672Z,101316.01
2018-08-04T23:01:42.747Z,101321.89
2018-08-04T23:04:09.747Z,101316.91
2018-08-04T23:06:36.894Z,101314.80
2018-08-04T23:09:05.978Z,101310.97
2018-08-04T23:11:33.179Z,101316.86
2018-08-04T23:14:00.489Z,101316.91
2018-08-04T23:16:27.680Z,101319.53
2018-08-04T23:18:54.660Z,101316.47
2018-08-04T23:21:21.691Z,101318.08
2018-08-04T23:23:48.819Z,101317.06
2018-08-04T23:26:15.796Z,101318.08
2018-08-04T23:28:42.885Z,101322.67
2018-08-04T23:31:09.879Z,101319.61
2018-08-04T23:33:36.867Z,101322.40
2018-08-04T23:36:03.923Z,101326.55
2018-08-04T23:38:31.203Z,101324.01
2018-08-04T23:40:58.208Z,101319.39
2018-08-04T23:43:25.743Z,101325.94
2018-08-04T23:45:52.963Z,101322.05
2018-08-04T23:48:19.956Z,101327.08
2018-08-04T23:50:47.399Z,101325.28
2018-08-04T23:53:14.431Z,101325.53
2018-08-04T23:55:41.705Z,101330.28
2018-08-04T23:58:09.359Z,101332.30
